Pine Galaxy — C6TT5 — position and weather

sailwx.info

Track history (hours):
 
Tides and Currents Weather Stations Pressure Air Temp Water Temp Dewpoint Dewpoint Depression Visibility Wind Speed Wind Dir Waves Ship Positions

Pine Galaxy

Last reported at 2014-Aug-28 18:13 UTC. Time now 2014-Aug-29 08:07 UTC.
Position N 37°45' W 122°23'.

Length 147 m; draft 8.2 m.

Type: Tanker. MMSI: 311772000.

Date/timePositionNaut miles runAvg speedWind from/ knotsBaromVisibWave heightAir tempDewpointWater temp
2014-Aug-28 18:13N 37°45' W 122°23'0 0.0
2014-Aug-28 17:31N 37°45' W 122°23'0 0.0
2014-Aug-28 16:31N 37°45' W 122°23'0 0.0
2014-Aug-28 15:31N 37°45' W 122°23'0 0.0
2014-Aug-28 14:31N 37°45' W 122°23'0 0.0
2014-Aug-28 13:31N 37°45' W 122°23'0 0.0
2014-Aug-28 12:31N 37°45' W 122°23'0 0.0
2014-Aug-28 11:31N 37°45' W 122°23'0 0.0
2014-Aug-28 10:31N 37°45' W 122°23'0 0.0
2014-Aug-28 09:28N 37°45' W 122°23'0 0.0
2014-Aug-28 08:28N 37°45' W 122°23'0 0.0
2014-Aug-28 07:31N 37°45' W 122°23'0 0.0
2014-Aug-28 06:31N 37°45' W 122°23'0 0.0
2014-Aug-28 05:31N 37°45' W 122°23'0 0.0
2014-Aug-28 04:28N 37°45' W 122°23'0 0.0
2014-Aug-28 03:31N 37°45' W 122°23'0 0.0
2014-Aug-28 02:28N 37°45' W 122°23'0 0.0
2014-Aug-28 01:31N 37°45' W 122°23'0 0.0
2014-Aug-28 00:31N 37°45' W 122°23'0 0.0
2014-Aug-27 23:28N 37°45' W 122°23'0 0.0
2014-Aug-27 22:28N 37°45' W 122°23'0 0.0
2014-Aug-27 21:28N 37°45' W 122°23'0 0.0
2014-Aug-27 20:31N 37°45' W 122°23'0 0.3
2014-Aug-27 19:31N 37°45' W 122°22'2 1.6
2014-Aug-27 18:33N 37°46' W 122°22'5 5.1
2014-Aug-27 17:33N 37°49' W 122°28'6 5.5
2014-Aug-27 16:33N 37°47' W 122°34'5 4.9
2014-Aug-27 15:33N 37°45' W 122°40'4 4.4
2014-Aug-27 14:33N 37°42' W 122°43'4 4.3
2014-Aug-27 13:33N 37°40' W 122°48'5 4.9
2014-Aug-27 12:33N 37°37' W 122°53'5 4.8
2014-Aug-27 11:33N 37°35' W 122°58'4 4.3
2014-Aug-27 10:33N 37°32' W 123°03'4 4.3
2014-Aug-27 09:33N 37°30' W 123°08'4 4.4
2014-Aug-27 08:33N 37°29' W 123°13'19 4.2
2014-Aug-27 04:10N 37°32' W 123°36'22 4.3
2014-Aug-26 23:04N 37°44' W 123°59'4 4.9
2014-Aug-26 22:13N 37°46' W 124°04'  
Track history (hours):
 
Tides and Currents Weather Stations Pressure Air Temp Water Temp Dewpoint Dewpoint Depression Visibility Wind Speed Wind Dir Waves Ship Positions

Pine Galaxy

Last reported at 2014-Aug-28 18:13 UTC. Time now 2014-Aug-29 08:07 UTC.
Position N 37°45' W 122°23'.

Length 147 m; draft 8.2 m.

Type: Tanker. MMSI: 311772000.

Date/timePositionNaut miles runAvg speedWind from/ knotsBaromVisibWave heightAir tempDewpointWater temp
2014-Aug-28 18:13N 37°45' W 122°23'0 0.0
2014-Aug-28 17:31N 37°45' W 122°23'0 0.0
2014-Aug-28 16:31N 37°45' W 122°23'0 0.0
2014-Aug-28 15:31N 37°45' W 122°23'0 0.0
2014-Aug-28 14:31N 37°45' W 122°23'0 0.0
2014-Aug-28 13:31N 37°45' W 122°23'0 0.0
2014-Aug-28 12:31N 37°45' W 122°23'0 0.0
2014-Aug-28 11:31N 37°45' W 122°23'0 0.0
2014-Aug-28 10:31N 37°45' W 122°23'0 0.0
2014-Aug-28 09:28N 37°45' W 122°23'0 0.0
2014-Aug-28 08:28N 37°45' W 122°23'0 0.0
2014-Aug-28 07:31N 37°45' W 122°23'0 0.0
2014-Aug-28 06:31N 37°45' W 122°23'0 0.0
2014-Aug-28 05:31N 37°45' W 122°23'0 0.0
2014-Aug-28 04:28N 37°45' W 122°23'0 0.0
2014-Aug-28 03:31N 37°45' W 122°23'0 0.0
2014-Aug-28 02:28N 37°45' W 122°23'0 0.0
2014-Aug-28 01:31N 37°45' W 122°23'0 0.0
2014-Aug-28 00:31N 37°45' W 122°23'0 0.0
2014-Aug-27 23:28N 37°45' W 122°23'0 0.0
2014-Aug-27 22:28N 37°45' W 122°23'0 0.0
2014-Aug-27 21:28N 37°45' W 122°23'0 0.0
2014-Aug-27 20:31N 37°45' W 122°23'0 0.3
2014-Aug-27 19:31N 37°45' W 122°22'2 1.6
2014-Aug-27 18:33N 37°46' W 122°22'5 5.1
2014-Aug-27 17:33N 37°49' W 122°28'6 5.5
2014-Aug-27 16:33N 37°47' W 122°34'5 4.9
2014-Aug-27 15:33N 37°45' W 122°40'4 4.4
2014-Aug-27 14:33N 37°42' W 122°43'4 4.3
2014-Aug-27 13:33N 37°40' W 122°48'5 4.9
2014-Aug-27 12:33N 37°37' W 122°53'5 4.8
2014-Aug-27 11:33N 37°35' W 122°58'4 4.3
2014-Aug-27 10:33N 37°32' W 123°03'4 4.3
2014-Aug-27 09:33N 37°30' W 123°08'4 4.4
2014-Aug-27 08:33N 37°29' W 123°13'19 4.2
2014-Aug-27 04:10N 37°32' W 123°36'22 4.3
2014-Aug-26 23:04N 37°44' W 123°59'4 4.9
2014-Aug-26 22:13N 37°46' W 124°04'  

Dump ship's entire track history